FACT/CPT METAR and TAF weather

Enter ICAO airport designator
Station Type Date Time Source
FACT METAR 2019/12/12 12:00 UTC NOAA

FACT 121200Z 22009KT 170V260 CAVOK 27/14 Q1012 NOSIG


Station Type Date Time Source
FACT Decoded METAR 2019/12/12 12:00 UTC NOAA

Cape Town, Cape Town International Airport, South Africa (FACT) 33-59S 018-36E 0M
Dec 12, 2019 - 07:00 AM EST / 2019.12.12 1200 UTC
Wind: from the SW (220 degrees) at 10 MPH (9 KT) (direction variable):0
Visibility: greater than 7 mile(s):0
Temperature: 80 F (27 C)
Dew Point: 57 F (14 C)
Relative Humidity: 44%
Pressure (altimeter): 29.88 in. Hg (1012 hPa)
ob: FACT 121200Z 22009KT 170V260 CAVOK 27/14 Q1012 NOSIG
cycle: 12

Station Type Date Time Source
FACT TAF 2019/12/12 12:27 UTC NOAA

TAF TAF FACT 121000Z 1212/1318 16017KT CAVOK TX27/1212Z TN17/1304Z
BECMG 1222/1224 VRB03KT PROB30
TEMPO 1302/1306 BKN008
BECMG 1310/1312 18016KT

Example: see airport list